Terminal Aerodrome Forecast
Issued by NWS Grand Rapids, MI

Current Version | Previous Version | Text Only | Print | Product List | Glossary On
Versions: 1 2 3 4 5 6 7 8 9 10 11 12 13 14 15 16 17 18 19 20
000
FTUS43 KGRR 252300 RRA
TAFGRR
TAF
KGRR 252347Z 2600/2624 05010KT P6SM BKN200
     FM260600 05004KT P6SM SCT250
     FM261500 13008KT P6SM BKN100=

USA.gov is the U.S. government's official web portal to all federal, state and local government web resources and services.